sensor_id;sensor_type;location;lat;lon;timestamp;P1;durP1;ratioP1;P2;durP2;ratioP2
50165;SDS011;36071;48.140;11.516;2024-02-16T00:02:36;9.2;;;4.5;;
50165;SDS011;36071;48.140;11.516;2024-02-16T00:07:31;8.1;;;4.5;;
50165;SDS011;36071;48.140;11.516;2024-02-16T00:12:31;8.8;;;4.5;;
50165;SDS011;36071;48.140;11.516;2024-02-16T00:17:31;6.7;;;4.0;;
50165;SDS011;36071;48.140;11.516;2024-02-16T00:22:31;6.6;;;4.4;;
50165;SDS011;36071;48.140;11.516;2024-02-16T00:27:36;7.6;;;4.4;;
50165;SDS011;36071;48.140;11.516;2024-02-16T00:32:31;8.2;;;4.5;;
50165;SDS011;36071;48.140;11.516;2024-02-16T00:37:31;8.1;;;4.5;;
50165;SDS011;36071;48.140;11.516;2024-02-16T00:42:31;10.4;;;4.4;;
50165;SDS011;36071;48.140;11.516;2024-02-16T00:47:31;8.7;;;4.2;;
50165;SDS011;36071;48.140;11.516;2024-02-16T00:52:34;6.3;;;4.4;;
50165;SDS011;36071;48.140;11.516;2024-02-16T00:57:31;9.1;;;4.5;;
50165;SDS011;36071;48.140;11.516;2024-02-16T01:02:31;8.6;;;4.1;;
50165;SDS011;36071;48.140;11.516;2024-02-16T01:07:31;9.5;;;4.1;;
50165;SDS011;36071;48.140;11.516;2024-02-16T01:12:31;6.7;;;4.1;;
50165;SDS011;36071;48.140;11.516;2024-02-16T01:17:31;7.7;;;4.7;;
50165;SDS011;36071;48.140;11.516;2024-02-16T01:22:31;8.0;;;4.3;;
50165;SDS011;36071;48.140;11.516;2024-02-16T01:27:36;7.4;;;4.1;;
50165;SDS011;36071;48.140;11.516;2024-02-16T01:32:33;6.2;;;4.1;;
50165;SDS011;36071;48.140;11.516;2024-02-16T01:37:31;6.6;;;4.1;;
50165;SDS011;36071;48.140;11.516;2024-02-16T01:42:31;7.4;;;4.1;;
50165;SDS011;36071;48.140;11.516;2024-02-16T01:47:31;6.7;;;4.2;;
50165;SDS011;36071;48.140;11.516;2024-02-16T01:52:31;8.2;;;3.8;;
50165;SDS011;36071;48.140;11.516;2024-02-16T01:57:34;7.2;;;4.1;;
50165;SDS011;36071;48.140;11.516;2024-02-16T02:02:31;6.1;;;4.0;;
50165;SDS011;36071;48.140;11.516;2024-02-16T02:07:31;7.4;;;4.3;;
50165;SDS011;36071;48.140;11.516;2024-02-16T02:12:31;6.4;;;4.2;;
50165;SDS011;36071;48.140;11.516;2024-02-16T02:17:31;9.2;;;5.0;;
50165;SDS011;36071;48.140;11.516;2024-02-16T02:22:33;8.2;;;4.5;;
50165;SDS011;36071;48.140;11.516;2024-02-16T02:27:31;9.4;;;4.2;;
50165;SDS011;36071;48.140;11.516;2024-02-16T02:32:31;9.4;;;4.3;;
50165;SDS011;36071;48.140;11.516;2024-02-16T02:37:35;7.4;;;4.2;;
50165;SDS011;36071;48.140;11.516;2024-02-16T02:42:31;8.2;;;3.9;;
50165;SDS011;36071;48.140;11.516;2024-02-16T02:47:31;5.9;;;3.8;;
50165;SDS011;36071;48.140;11.516;2024-02-16T02:52:31;9.3;;;4.0;;
50165;SDS011;36071;48.140;11.516;2024-02-16T02:57:33;5.9;;;3.8;;
50165;SDS011;36071;48.140;11.516;2024-02-16T03:02:31;6.2;;;4.2;;
50165;SDS011;36071;48.140;11.516;2024-02-16T03:07:31;6.3;;;4.3;;
50165;SDS011;36071;48.140;11.516;2024-02-16T03:12:31;6.0;;;3.8;;
50165;SDS011;36071;48.140;11.516;2024-02-16T03:17:31;5.8;;;4.1;;
50165;SDS011;36071;48.140;11.516;2024-02-16T03:22:31;7.3;;;3.8;;
50165;SDS011;36071;48.140;11.516;2024-02-16T03:27:31;7.0;;;3.6;;
50165;SDS011;36071;48.140;11.516;2024-02-16T03:32:31;6.5;;;4.0;;
50165;SDS011;36071;48.140;11.516;2024-02-16T03:37:33;7.1;;;3.6;;
50165;SDS011;36071;48.140;11.516;2024-02-16T03:42:33;7.1;;;3.7;;
50165;SDS011;36071;48.140;11.516;2024-02-16T03:47:31;8.2;;;4.1;;
50165;SDS011;36071;48.140;11.516;2024-02-16T03:52:31;6.8;;;4.0;;
50165;SDS011;36071;48.140;11.516;2024-02-16T03:57:32;7.2;;;3.7;;
50165;SDS011;36071;48.140;11.516;2024-02-16T04:02:31;8.7;;;4.0;;
50165;SDS011;36071;48.140;11.516;2024-02-16T04:07:31;7.9;;;3.8;;
50165;SDS011;36071;48.140;11.516;2024-02-16T04:12:31;8.9;;;3.7;;
50165;SDS011;36071;48.140;11.516;2024-02-16T04:17:31;10.1;;;3.7;;
50165;SDS011;36071;48.140;11.516;2024-02-16T04:22:31;7.2;;;3.8;;
50165;SDS011;36071;48.140;11.516;2024-02-16T04:27:31;8.5;;;4.0;;
50165;SDS011;36071;48.140;11.516;2024-02-16T04:32:34;8.9;;;3.9;;
50165;SDS011;36071;48.140;11.516;2024-02-16T04:37:31;7.3;;;3.4;;
50165;SDS011;36071;48.140;11.516;2024-02-16T04:42:31;6.0;;;3.1;;
50165;SDS011;36071;48.140;11.516;2024-02-16T04:47:33;6.7;;;3.6;;
50165;SDS011;36071;48.140;11.516;2024-02-16T04:52:31;7.1;;;3.5;;
50165;SDS011;36071;48.140;11.516;2024-02-16T04:57:31;6.2;;;2.8;;
50165;SDS011;36071;48.140;11.516;2024-02-16T05:02:31;5.1;;;2.8;;
50165;SDS011;36071;48.140;11.516;2024-02-16T05:07:31;6.4;;;2.7;;
50165;SDS011;36071;48.140;11.516;2024-02-16T05:12:31;4.2;;;2.4;;
50165;SDS011;36071;48.140;11.516;2024-02-16T05:17:31;5.2;;;2.8;;
50165;SDS011;36071;48.140;11.516;2024-02-16T05:22:31;10.8;;;5.9;;
50165;SDS011;36071;48.140;11.516;2024-02-16T05:27:31;23.4;;;12.8;;
50165;SDS011;36071;48.140;11.516;2024-02-16T05:32:31;36.2;;;20.4;;
50165;SDS011;36071;48.140;11.516;2024-02-16T05:37:31;7.9;;;4.2;;
50165;SDS011;36071;48.140;11.516;2024-02-16T05:42:31;8.7;;;4.7;;
50165;SDS011;36071;48.140;11.516;2024-02-16T05:47:33;10.0;;;4.8;;
50165;SDS011;36071;48.140;11.516;2024-02-16T05:52:31;5.7;;;2.8;;
50165;SDS011;36071;48.140;11.516;2024-02-16T05:57:31;5.9;;;2.6;;
50165;SDS011;36071;48.140;11.516;2024-02-16T06:02:31;5.7;;;3.0;;
50165;SDS011;36071;48.140;11.516;2024-02-16T06:07:31;7.0;;;2.9;;
50165;SDS011;36071;48.140;11.516;2024-02-16T06:12:35;5.7;;;2.7;;
50165;SDS011;36071;48.140;11.516;2024-02-16T06:17:31;5.6;;;3.2;;
50165;SDS011;36071;48.140;11.516;2024-02-16T06:22:31;5.9;;;2.6;;
50165;SDS011;36071;48.140;11.516;2024-02-16T06:27:31;6.9;;;2.7;;
50165;SDS011;36071;48.140;11.516;2024-02-16T06:32:31;7.1;;;3.0;;
50165;SDS011;36071;48.140;11.516;2024-02-16T06:37:31;8.7;;;3.7;;
50165;SDS011;36071;48.140;11.516;2024-02-16T06:42:31;9.4;;;3.7;;
50165;SDS011;36071;48.140;11.516;2024-02-16T06:47:31;11.2;;;4.7;;
50165;SDS011;36071;48.140;11.516;2024-02-16T06:52:36;8.1;;;3.7;;
50165;SDS011;36071;48.140;11.516;2024-02-16T06:57:33;6.7;;;3.2;;
50165;SDS011;36071;48.140;11.516;2024-02-16T07:02:31;6.1;;;3.2;;
50165;SDS011;36071;48.140;11.516;2024-02-16T07:07:31;8.1;;;2.8;;
50165;SDS011;36071;48.140;11.516;2024-02-16T07:12:31;6.1;;;3.2;;
50165;SDS011;36071;48.140;11.516;2024-02-16T07:17:36;8.1;;;3.2;;
50165;SDS011;36071;48.140;11.516;2024-02-16T07:22:33;7.4;;;3.3;;
50165;SDS011;36071;48.140;11.516;2024-02-16T07:27:31;10.0;;;2.7;;
50165;SDS011;36071;48.140;11.516;2024-02-16T07:32:31;11.8;;;3.8;;
50165;SDS011;36071;48.140;11.516;2024-02-16T07:37:31;11.7;;;3.8;;
50165;SDS011;36071;48.140;11.516;2024-02-16T07:42:31;11.2;;;4.2;;
50165;SDS011;36071;48.140;11.516;2024-02-16T07:47:31;12.4;;;3.8;;
50165;SDS011;36071;48.140;11.516;2024-02-16T07:52:31;10.9;;;3.8;;
50165;SDS011;36071;48.140;11.516;2024-02-16T07:57:31;12.9;;;4.5;;
50165;SDS011;36071;48.140;11.516;2024-02-16T08:02:31;12.1;;;4.0;;
50165;SDS011;36071;48.140;11.516;2024-02-16T08:07:31;14.0;;;3.9;;
50165;SDS011;36071;48.140;11.516;2024-02-16T08:12:36;10.4;;;3.2;;
50165;SDS011;36071;48.140;11.516;2024-02-16T08:17:31;7.2;;;2.8;;
50165;SDS011;36071;48.140;11.516;2024-02-16T08:22:31;10.2;;;2.8;;
50165;SDS011;36071;48.140;11.516;2024-02-16T08:27:31;9.7;;;2.8;;
50165;SDS011;36071;48.140;11.516;2024-02-16T08:32:31;8.5;;;3.1;;
50165;SDS011;36071;48.140;11.516;2024-02-16T08:37:31;9.0;;;2.8;;
50165;SDS011;36071;48.140;11.516;2024-02-16T08:42:34;11.0;;;2.9;;
50165;SDS011;36071;48.140;11.516;2024-02-16T08:47:31;9.7;;;3.4;;
50165;SDS011;36071;48.140;11.516;2024-02-16T08:52:31;10.0;;;2.8;;
50165;SDS011;36071;48.140;11.516;2024-02-16T08:57:34;8.5;;;2.6;;
50165;SDS011;36071;48.140;11.516;2024-02-16T09:02:31;9.1;;;2.6;;
50165;SDS011;36071;48.140;11.516;2024-02-16T09:07:31;5.8;;;2.1;;
50165;SDS011;36071;48.140;11.516;2024-02-16T09:12:36;7.7;;;2.1;;
50165;SDS011;36071;48.140;11.516;2024-02-16T09:17:34;5.4;;;2.1;;
50165;SDS011;36071;48.140;11.516;2024-02-16T09:22:36;7.3;;;2.4;;
50165;SDS011;36071;48.140;11.516;2024-02-16T09:27:36;4.7;;;1.8;;
50165;SDS011;36071;48.140;11.516;2024-02-16T09:32:31;3.9;;;1.7;;
50165;SDS011;36071;48.140;11.516;2024-02-16T09:37:31;3.8;;;1.7;;
50165;SDS011;36071;48.140;11.516;2024-02-16T09:42:31;3.5;;;1.7;;
50165;SDS011;36071;48.140;11.516;2024-02-16T09:47:31;7.0;;;1.9;;
50165;SDS011;36071;48.140;11.516;2024-02-16T09:52:31;5.8;;;1.8;;
50165;SDS011;36071;48.140;11.516;2024-02-16T09:57:31;7.2;;;2.2;;
50165;SDS011;36071;48.140;11.516;2024-02-16T10:02:38;8.5;;;2.1;;
50165;SDS011;36071;48.140;11.516;2024-02-16T10:07:33;6.4;;;2.2;;
50165;SDS011;36071;48.140;11.516;2024-02-16T10:12:31;4.8;;;2.2;;
50165;SDS011;36071;48.140;11.516;2024-02-16T10:17:31;4.7;;;1.7;;
50165;SDS011;36071;48.140;11.516;2024-02-16T10:22:31;7.7;;;2.2;;
50165;SDS011;36071;48.140;11.516;2024-02-16T10:27:31;6.7;;;1.7;;
50165;SDS011;36071;48.140;11.516;2024-02-16T10:32:31;6.2;;;2.1;;
50165;SDS011;36071;48.140;11.516;2024-02-16T10:37:31;3.0;;;1.6;;
50165;SDS011;36071;48.140;11.516;2024-02-16T10:42:34;4.6;;;1.5;;
50165;SDS011;36071;48.140;11.516;2024-02-16T10:47:31;4.8;;;1.4;;
50165;SDS011;36071;48.140;11.516;2024-02-16T10:52:31;2.9;;;1.6;;
50165;SDS011;36071;48.140;11.516;2024-02-16T10:57:31;3.1;;;1.1;;
50165;SDS011;36071;48.140;11.516;2024-02-16T11:02:31;3.2;;;1.2;;
50165;SDS011;36071;48.140;11.516;2024-02-16T11:07:37;2.9;;;1.6;;
50165;SDS011;36071;48.140;11.516;2024-02-16T11:12:33;4.3;;;1.6;;
50165;SDS011;36071;48.140;11.516;2024-02-16T11:17:32;2.6;;;1.5;;
50165;SDS011;36071;48.140;11.516;2024-02-16T11:27:32;3.2;;;1.3;;
50165;SDS011;36071;48.140;11.516;2024-02-16T11:32:34;2.7;;;1.3;;
50165;SDS011;36071;48.140;11.516;2024-02-16T11:37:32;3.6;;;1.7;;
50165;SDS011;36071;48.140;11.516;2024-02-16T11:42:32;3.8;;;1.5;;
50165;SDS011;36071;48.140;11.516;2024-02-16T11:47:32;3.6;;;1.5;;
50165;SDS011;36071;48.140;11.516;2024-02-16T11:52:32;3.5;;;1.5;;
50165;SDS011;36071;48.140;11.516;2024-02-16T11:57:34;3.6;;;1.5;;
50165;SDS011;36071;48.140;11.516;2024-02-16T12:02:33;6.0;;;1.4;;
50165;SDS011;36071;48.140;11.516;2024-02-16T12:07:32;5.4;;;1.3;;
50165;SDS011;36071;48.140;11.516;2024-02-16T12:12:37;4.6;;;1.4;;
50165;SDS011;36071;48.140;11.516;2024-02-16T12:17:33;3.6;;;1.6;;
50165;SDS011;36071;48.140;11.516;2024-02-16T12:22:32;3.9;;;1.7;;
50165;SDS011;36071;48.140;11.516;2024-02-16T12:27:32;1.7;;;1.4;;
50165;SDS011;36071;48.140;11.516;2024-02-16T12:32:32;2.7;;;1.4;;
50165;SDS011;36071;48.140;11.516;2024-02-16T12:37:32;2.6;;;1.3;;
50165;SDS011;36071;48.140;11.516;2024-02-16T12:42:32;3.4;;;1.6;;
50165;SDS011;36071;48.140;11.516;2024-02-16T12:47:32;4.0;;;1.4;;
50165;SDS011;36071;48.140;11.516;2024-02-16T12:52:37;4.3;;;1.6;;
50165;SDS011;36071;48.140;11.516;2024-02-16T12:57:32;2.5;;;1.4;;
50165;SDS011;36071;48.140;11.516;2024-02-16T13:02:32;2.8;;;1.2;;
50165;SDS011;36071;48.140;11.516;2024-02-16T13:07:32;4.3;;;1.5;;
50165;SDS011;36071;48.140;11.516;2024-02-16T13:12:32;3.5;;;1.3;;
50165;SDS011;36071;48.140;11.516;2024-02-16T13:17:34;3.3;;;1.2;;
50165;SDS011;36071;48.140;11.516;2024-02-16T13:22:32;5.3;;;1.6;;
50165;SDS011;36071;48.140;11.516;2024-02-16T13:27:32;3.0;;;1.2;;
50165;SDS011;36071;48.140;11.516;2024-02-16T13:32:32;3.9;;;1.4;;
50165;SDS011;36071;48.140;11.516;2024-02-16T13:37:32;5.5;;;1.7;;
50165;SDS011;36071;48.140;11.516;2024-02-16T13:42:32;5.1;;;1.6;;
50165;SDS011;36071;48.140;11.516;2024-02-16T13:47:32;5.5;;;1.4;;
50165;SDS011;36071;48.140;11.516;2024-02-16T13:52:32;4.5;;;1.6;;
50165;SDS011;36071;48.140;11.516;2024-02-16T13:57:32;5.5;;;1.6;;
50165;SDS011;36071;48.140;11.516;2024-02-16T14:02:34;5.1;;;1.6;;
50165;SDS011;36071;48.140;11.516;2024-02-16T14:07:32;3.9;;;1.7;;
50165;SDS011;36071;48.140;11.516;2024-02-16T14:12:32;3.7;;;1.7;;
50165;SDS011;36071;48.140;11.516;2024-02-16T14:17:32;7.0;;;2.0;;
50165;SDS011;36071;48.140;11.516;2024-02-16T14:22:32;5.6;;;2.0;;
50165;SDS011;36071;48.140;11.516;2024-02-16T14:27:32;5.3;;;2.2;;
50165;SDS011;36071;48.140;11.516;2024-02-16T14:32:32;3.7;;;1.9;;
50165;SDS011;36071;48.140;11.516;2024-02-16T14:37:32;4.5;;;1.8;;
50165;SDS011;36071;48.140;11.516;2024-02-16T14:42:32;3.8;;;1.7;;
50165;SDS011;36071;48.140;11.516;2024-02-16T14:47:32;4.7;;;1.5;;
50165;SDS011;36071;48.140;11.516;2024-02-16T14:52:34;4.8;;;1.8;;
50165;SDS011;36071;48.140;11.516;2024-02-16T14:57:32;5.7;;;2.0;;
50165;SDS011;36071;48.140;11.516;2024-02-16T15:02:32;4.6;;;1.9;;
50165;SDS011;36071;48.140;11.516;2024-02-16T15:07:32;5.3;;;2.1;;
50165;SDS011;36071;48.140;11.516;2024-02-16T15:12:32;6.8;;;1.9;;
50165;SDS011;36071;48.140;11.516;2024-02-16T15:17:32;5.0;;;1.9;;
50165;SDS011;36071;48.140;11.516;2024-02-16T15:22:32;7.2;;;1.8;;
50165;SDS011;36071;48.140;11.516;2024-02-16T15:27:33;7.8;;;2.1;;
50165;SDS011;36071;48.140;11.516;2024-02-16T15:32:33;7.2;;;1.7;;
50165;SDS011;36071;48.140;11.516;2024-02-16T15:37:34;6.1;;;1.8;;
50165;SDS011;36071;48.140;11.516;2024-02-16T15:42:33;8.3;;;2.3;;
50165;SDS011;36071;48.140;11.516;2024-02-16T15:47:33;6.0;;;2.1;;
50165;SDS011;36071;48.140;11.516;2024-02-16T15:52:34;6.2;;;1.9;;
50165;SDS011;36071;48.140;11.516;2024-02-16T15:57:36;7.6;;;2.1;;
50165;SDS011;36071;48.140;11.516;2024-02-16T16:02:34;5.2;;;1.9;;
50165;SDS011;36071;48.140;11.516;2024-02-16T16:07:35;6.5;;;2.1;;
50165;SDS011;36071;48.140;11.516;2024-02-16T16:12:35;6.1;;;2.0;;
50165;SDS011;36071;48.140;11.516;2024-02-16T16:17:35;7.3;;;2.1;;
50165;SDS011;36071;48.140;11.516;2024-02-16T16:22:35;5.6;;;2.1;;
50165;SDS011;36071;48.140;11.516;2024-02-16T16:27:35;5.8;;;2.3;;
50165;SDS011;36071;48.140;11.516;2024-02-16T16:32:35;5.6;;;2.1;;
50165;SDS011;36071;48.140;11.516;2024-02-16T16:37:36;8.6;;;2.4;;
50165;SDS011;36071;48.140;11.516;2024-02-16T16:42:35;5.2;;;2.1;;
50165;SDS011;36071;48.140;11.516;2024-02-16T16:47:35;8.6;;;2.2;;
50165;SDS011;36071;48.140;11.516;2024-02-16T16:52:37;6.1;;;2.5;;
50165;SDS011;36071;48.140;11.516;2024-02-16T16:57:35;8.4;;;2.8;;
50165;SDS011;36071;48.140;11.516;2024-02-16T17:02:35;7.0;;;2.9;;
50165;SDS011;36071;48.140;11.516;2024-02-16T17:07:35;8.6;;;2.9;;
50165;SDS011;36071;48.140;11.516;2024-02-16T17:12:35;6.2;;;2.6;;
50165;SDS011;36071;48.140;11.516;2024-02-16T17:17:35;8.6;;;3.1;;
50165;SDS011;36071;48.140;11.516;2024-02-16T17:22:38;7.7;;;2.8;;
50165;SDS011;36071;48.140;11.516;2024-02-16T17:27:35;7.1;;;3.3;;
50165;SDS011;36071;48.140;11.516;2024-02-16T17:32:35;8.4;;;3.1;;
50165;SDS011;36071;48.140;11.516;2024-02-16T17:37:35;7.9;;;3.1;;
50165;SDS011;36071;48.140;11.516;2024-02-16T17:42:35;9.2;;;3.6;;
50165;SDS011;36071;48.140;11.516;2024-02-16T17:47:35;7.1;;;3.1;;
50165;SDS011;36071;48.140;11.516;2024-02-16T17:52:35;8.8;;;3.3;;
50165;SDS011;36071;48.140;11.516;2024-02-16T17:57:38;10.1;;;3.6;;
50165;SDS011;36071;48.140;11.516;2024-02-16T18:02:40;7.2;;;3.4;;
50165;SDS011;36071;48.140;11.516;2024-02-16T18:07:35;11.0;;;4.2;;
50165;SDS011;36071;48.140;11.516;2024-02-16T18:12:38;8.8;;;4.2;;
50165;SDS011;36071;48.140;11.516;2024-02-16T18:17:35;9.7;;;3.6;;
50165;SDS011;36071;48.140;11.516;2024-02-16T18:22:35;9.4;;;4.1;;
50165;SDS011;36071;48.140;11.516;2024-02-16T18:27:40;9.0;;;3.7;;
50165;SDS011;36071;48.140;11.516;2024-02-16T18:32:35;10.6;;;3.8;;
50165;SDS011;36071;48.140;11.516;2024-02-16T18:37:35;7.6;;;4.0;;
50165;SDS011;36071;48.140;11.516;2024-02-16T18:42:35;8.0;;;3.7;;
50165;SDS011;36071;48.140;11.516;2024-02-16T18:47:37;11.1;;;4.4;;
50165;SDS011;36071;48.140;11.516;2024-02-16T18:52:35;10.1;;;4.1;;
50165;SDS011;36071;48.140;11.516;2024-02-16T18:57:35;8.0;;;3.9;;
50165;SDS011;36071;48.140;11.516;2024-02-16T19:02:38;9.0;;;4.3;;
50165;SDS011;36071;48.140;11.516;2024-02-16T19:07:35;11.2;;;4.3;;
50165;SDS011;36071;48.140;11.516;2024-02-16T19:12:35;11.1;;;4.4;;
50165;SDS011;36071;48.140;11.516;2024-02-16T19:17:35;12.3;;;5.1;;
50165;SDS011;36071;48.140;11.516;2024-02-16T19:22:35;7.8;;;4.4;;
50165;SDS011;36071;48.140;11.516;2024-02-16T19:27:35;9.9;;;4.3;;
50165;SDS011;36071;48.140;11.516;2024-02-16T19:32:36;13.7;;;4.8;;
50165;SDS011;36071;48.140;11.516;2024-02-16T19:37:37;10.8;;;5.1;;
50165;SDS011;36071;48.140;11.516;2024-02-16T19:42:36;9.8;;;5.0;;
50165;SDS011;36071;48.140;11.516;2024-02-16T19:47:39;9.9;;;5.2;;
50165;SDS011;36071;48.140;11.516;2024-02-16T19:52:36;9.0;;;4.4;;
50165;SDS011;36071;48.140;11.516;2024-02-16T19:57:36;8.4;;;4.8;;
50165;SDS011;36071;48.140;11.516;2024-02-16T20:02:36;9.9;;;4.4;;
50165;SDS011;36071;48.140;11.516;2024-02-16T20:07:36;9.5;;;5.1;;
50165;SDS011;36071;48.140;11.516;2024-02-16T20:12:36;9.9;;;4.8;;
50165;SDS011;36071;48.140;11.516;2024-02-16T20:17:36;10.0;;;4.2;;
50165;SDS011;36071;48.140;11.516;2024-02-16T20:22:36;10.3;;;5.0;;
50165;SDS011;36071;48.140;11.516;2024-02-16T20:27:36;9.3;;;4.5;;
50165;SDS011;36071;48.140;11.516;2024-02-16T20:32:36;10.7;;;4.3;;
50165;SDS011;36071;48.140;11.516;2024-02-16T20:37:36;10.2;;;4.6;;
50165;SDS011;36071;48.140;11.516;2024-02-16T20:42:36;11.5;;;4.1;;
50165;SDS011;36071;48.140;11.516;2024-02-16T20:47:36;8.6;;;4.2;;
50165;SDS011;36071;48.140;11.516;2024-02-16T20:52:38;10.2;;;4.2;;
50165;SDS011;36071;48.140;11.516;2024-02-16T20:57:36;8.9;;;4.1;;
50165;SDS011;36071;48.140;11.516;2024-02-16T21:02:36;11.1;;;4.7;;
50165;SDS011;36071;48.140;11.516;2024-02-16T21:07:41;11.1;;;4.5;;
50165;SDS011;36071;48.140;11.516;2024-02-16T21:12:36;11.3;;;4.5;;
50165;SDS011;36071;48.140;11.516;2024-02-16T21:17:39;11.4;;;4.6;;
50165;SDS011;36071;48.140;11.516;2024-02-16T21:22:36;8.7;;;4.6;;
50165;SDS011;36071;48.140;11.516;2024-02-16T21:27:36;8.6;;;4.2;;
50165;SDS011;36071;48.140;11.516;2024-02-16T21:32:41;8.1;;;4.1;;
50165;SDS011;36071;48.140;11.516;2024-02-16T21:37:36;9.0;;;4.3;;
50165;SDS011;36071;48.140;11.516;2024-02-16T21:42:36;8.0;;;4.1;;
50165;SDS011;36071;48.140;11.516;2024-02-16T21:47:36;11.7;;;4.5;;
50165;SDS011;36071;48.140;11.516;2024-02-16T21:52:36;7.9;;;4.3;;
50165;SDS011;36071;48.140;11.516;2024-02-16T21:57:36;10.1;;;4.7;;
50165;SDS011;36071;48.140;11.516;2024-02-16T22:02:39;10.6;;;4.7;;
50165;SDS011;36071;48.140;11.516;2024-02-16T22:07:36;10.4;;;4.6;;
50165;SDS011;36071;48.140;11.516;2024-02-16T22:12:36;9.2;;;4.7;;
50165;SDS011;36071;48.140;11.516;2024-02-16T22:17:36;9.9;;;5.1;;
50165;SDS011;36071;48.140;11.516;2024-02-16T22:22:36;11.0;;;4.5;;
50165;SDS011;36071;48.140;11.516;2024-02-16T22:27:36;12.8;;;4.9;;
50165;SDS011;36071;48.140;11.516;2024-02-16T22:32:36;9.9;;;4.7;;
50165;SDS011;36071;48.140;11.516;2024-02-16T22:37:39;9.9;;;4.6;;
50165;SDS011;36071;48.140;11.516;2024-02-16T22:42:36;13.0;;;5.3;;
50165;SDS011;36071;48.140;11.516;2024-02-16T22:47:36;9.1;;;4.7;;
50165;SDS011;36071;48.140;11.516;2024-02-16T22:52:39;11.8;;;5.7;;
50165;SDS011;36071;48.140;11.516;2024-02-16T22:57:36;11.2;;;5.2;;
50165;SDS011;36071;48.140;11.516;2024-02-16T23:02:36;9.9;;;4.9;;
50165;SDS011;36071;48.140;11.516;2024-02-16T23:07:36;12.3;;;4.9;;
50165;SDS011;36071;48.140;11.516;2024-02-16T23:12:36;12.1;;;5.1;;
50165;SDS011;36071;48.140;11.516;2024-02-16T23:17:38;11.6;;;4.9;;
50165;SDS011;36071;48.140;11.516;2024-02-16T23:27:36;9.9;;;5.1;;
50165;SDS011;36071;48.140;11.516;2024-02-16T23:32:39;11.8;;;5.1;;
50165;SDS011;36071;48.140;11.516;2024-02-16T23:37:36;12.0;;;4.7;;
50165;SDS011;36071;48.140;11.516;2024-02-16T23:42:41;9.7;;;5.1;;
50165;SDS011;36071;48.140;11.516;2024-02-16T23:47:36;10.8;;;5.5;;
50165;SDS011;36071;48.140;11.516;2024-02-16T23:52:36;9.6;;;5.0;;
50165;SDS011;36071;48.140;11.516;2024-02-16T23:57:38;10.4;;;5.5;;
